sensor_id;sensor_type;location;lat;lon;timestamp;pressure;altitude;pressure_sealevel;temperature;humidity
52535;BME280;38443;53.164;5.802;2023-08-17T00:00:06;102436.03;;;14.71;100.00
52535;BME280;38443;53.164;5.802;2023-08-17T00:02:35;102438.75;;;14.68;100.00
52535;BME280;38443;53.164;5.802;2023-08-17T00:05:00;102439.72;;;14.66;100.00
52535;BME280;38443;53.164;5.802;2023-08-17T00:07:26;102439.75;;;14.64;100.00
52535;BME280;38443;53.164;5.802;2023-08-17T00:09:51;102431.72;;;14.61;100.00
52535;BME280;38443;53.164;5.802;2023-08-17T00:12:16;102434.50;;;14.58;100.00
52535;BME280;38443;53.164;5.802;2023-08-17T00:14:42;102434.50;;;14.56;100.00
52535;BME280;38443;53.164;5.802;2023-08-17T00:17:07;102434.50;;;14.56;100.00
52535;BME280;38443;53.164;5.802;2023-08-17T00:19:32;102439.00;;;14.54;100.00
52535;BME280;38443;53.164;5.802;2023-08-17T00:21:58;102439.94;;;14.53;100.00
52535;BME280;38443;53.164;5.802;2023-08-17T00:24:23;102440.84;;;14.52;100.00
52535;BME280;38443;53.164;5.802;2023-08-17T00:26:48;102432.84;;;14.49;100.00
52535;BME280;38443;53.164;5.802;2023-08-17T00:29:14;102433.75;;;14.48;100.00
52535;BME280;38443;53.164;5.802;2023-08-17T00:31:41;102434.69;;;14.47;100.00
52535;BME280;38443;53.164;5.802;2023-08-17T00:34:06;102433.81;;;14.45;100.00
52535;BME280;38443;53.164;5.802;2023-08-17T00:36:31;102437.44;;;14.43;100.00
52535;BME280;38443;53.164;5.802;2023-08-17T00:38:56;102428.50;;;14.41;100.00
52535;BME280;38443;53.164;5.802;2023-08-17T00:41:22;102430.31;;;14.40;100.00
52535;BME280;38443;53.164;5.802;2023-08-17T00:43:47;102421.38;;;14.38;100.00
52535;BME280;38443;53.164;5.802;2023-08-17T00:46:13;102427.72;;;14.35;100.00
52535;BME280;38443;53.164;5.802;2023-08-17T00:48:39;102435.84;;;14.34;100.00
52535;BME280;38443;53.164;5.802;2023-08-17T00:51:05;102428.66;;;14.33;100.00
52535;BME280;38443;53.164;5.802;2023-08-17T00:53:31;102431.44;;;14.30;100.00
52535;BME280;38443;53.164;5.802;2023-08-17T00:55:57;102427.00;;;14.27;100.00
52535;BME280;38443;53.164;5.802;2023-08-17T00:58:23;102429.72;;;14.26;100.00
52535;BME280;38443;53.164;5.802;2023-08-17T01:00:49;102426.16;;;14.24;100.00
52535;BME280;38443;53.164;5.802;2023-08-17T01:03:15;102421.75;;;14.20;100.00
52535;BME280;38443;53.164;5.802;2023-08-17T01:05:40;102424.47;;;14.16;100.00
52535;BME280;38443;53.164;5.802;2023-08-17T01:08:05;102417.38;;;14.12;100.00
52535;BME280;38443;53.164;5.802;2023-08-17T01:10:39;102412.06;;;14.09;100.00
52535;BME280;38443;53.164;5.802;2023-08-17T01:13:11;102408.47;;;14.09;100.00
52535;BME280;38443;53.164;5.802;2023-08-17T01:15:46;102415.69;;;14.07;100.00
52535;BME280;38443;53.164;5.802;2023-08-17T01:18:23;102413.94;;;14.04;100.00
52535;BME280;38443;53.164;5.802;2023-08-17T01:20:52;102413.06;;;14.04;100.00
52535;BME280;38443;53.164;5.802;2023-08-17T01:23:18;102414.03;;;14.01;100.00
52535;BME280;38443;53.164;5.802;2023-08-17T01:25:43;102420.31;;;14.00;100.00
52535;BME280;38443;53.164;5.802;2023-08-17T01:28:08;102421.22;;;13.99;100.00
52535;BME280;38443;53.164;5.802;2023-08-17T01:30:51;102415.81;;;13.99;100.00
52535;BME280;38443;53.164;5.802;2023-08-17T01:33:29;102417.66;;;13.97;100.00
52535;BME280;38443;53.164;5.802;2023-08-17T01:36:05;102411.41;;;13.95;100.00
52535;BME280;38443;53.164;5.802;2023-08-17T01:38:34;102406.09;;;13.92;100.00
52535;BME280;38443;53.164;5.802;2023-08-17T01:41:00;102407.00;;;13.91;100.00
52535;BME280;38443;53.164;5.802;2023-08-17T01:43:28;102407.06;;;13.89;100.00
52535;BME280;38443;53.164;5.802;2023-08-17T01:45:54;102408.84;;;13.89;100.00
52535;BME280;38443;53.164;5.802;2023-08-17T01:48:19;102417.84;;;13.88;100.00
52535;BME280;38443;53.164;5.802;2023-08-17T01:50:44;102416.09;;;13.85;100.00
52535;BME280;38443;53.164;5.802;2023-08-17T01:53:10;102402.66;;;13.85;100.00
52535;BME280;38443;53.164;5.802;2023-08-17T01:55:36;102406.25;;;13.83;100.00
52535;BME280;38443;53.164;5.802;2023-08-17T01:58:02;102413.44;;;13.82;100.00
52535;BME280;38443;53.164;5.802;2023-08-17T02:00:28;102413.47;;;13.81;100.00
52535;BME280;38443;53.164;5.802;2023-08-17T02:02:53;102407.22;;;13.79;100.00
52535;BME280;38443;53.164;5.802;2023-08-17T02:05:18;102411.75;;;13.76;100.00
52535;BME280;38443;53.164;5.802;2023-08-17T02:07:44;102409.06;;;13.75;100.00
52535;BME280;38443;53.164;5.802;2023-08-17T02:10:09;102410.88;;;13.74;100.00
52535;BME280;38443;53.164;5.802;2023-08-17T02:12:34;102409.13;;;13.73;100.00
52535;BME280;38443;53.164;5.802;2023-08-17T02:15:00;102422.59;;;13.72;100.00
52535;BME280;38443;53.164;5.802;2023-08-17T02:17:25;102425.31;;;13.70;100.00
52535;BME280;38443;53.164;5.802;2023-08-17T02:19:50;102415.47;;;13.69;100.00
52535;BME280;38443;53.164;5.802;2023-08-17T02:22:16;102420.81;;;13.71;100.00
52535;BME280;38443;53.164;5.802;2023-08-17T02:24:41;102409.16;;;13.70;100.00
52535;BME280;38443;53.164;5.802;2023-08-17T02:27:08;102420.81;;;13.71;100.00
52535;BME280;38443;53.164;5.802;2023-08-17T02:29:34;102413.66;;;13.70;100.00
52535;BME280;38443;53.164;5.802;2023-08-17T02:31:59;102408.25;;;13.71;100.00
52535;BME280;38443;53.164;5.802;2023-08-17T02:34:25;102404.66;;;13.72;100.00
52535;BME280;38443;53.164;5.802;2023-08-17T02:36:50;102401.09;;;13.70;100.00
52535;BME280;38443;53.164;5.802;2023-08-17T02:39:15;102393.03;;;13.70;100.00
52535;BME280;38443;53.164;5.802;2023-08-17T02:41:41;102402.03;;;13.69;100.00
52535;BME280;38443;53.164;5.802;2023-08-17T02:44:06;102404.72;;;13.69;100.00
52535;BME280;38443;53.164;5.802;2023-08-17T02:46:31;102407.41;;;13.69;100.00
52535;BME280;38443;53.164;5.802;2023-08-17T02:48:57;102400.22;;;13.70;100.00
52535;BME280;38443;53.164;5.802;2023-08-17T02:51:22;102402.91;;;13.68;100.00
52535;BME280;38443;53.164;5.802;2023-08-17T02:53:47;102397.56;;;13.67;100.00
52535;BME280;38443;53.164;5.802;2023-08-17T02:56:13;102398.47;;;13.67;100.00
52535;BME280;38443;53.164;5.802;2023-08-17T02:58:41;102399.34;;;13.68;100.00
52535;BME280;38443;53.164;5.802;2023-08-17T03:01:07;102390.41;;;13.66;100.00
52535;BME280;38443;53.164;5.802;2023-08-17T03:03:33;102398.50;;;13.66;100.00
52535;BME280;38443;53.164;5.802;2023-08-17T03:05:58;102392.22;;;13.65;100.00
52535;BME280;38443;53.164;5.802;2023-08-17T03:08:24;102388.69;;;13.63;100.00
52535;BME280;38443;53.164;5.802;2023-08-17T03:10:49;102397.66;;;13.62;100.00
52535;BME280;38443;53.164;5.802;2023-08-17T03:13:14;102390.44;;;13.63;100.00
52535;BME280;38443;53.164;5.802;2023-08-17T03:15:40;102393.19;;;13.61;100.00
52535;BME280;38443;53.164;5.802;2023-08-17T03:18:06;102391.41;;;13.59;100.00
52535;BME280;38443;53.164;5.802;2023-08-17T03:20:31;102400.41;;;13.59;100.00
52535;BME280;38443;53.164;5.802;2023-08-17T03:22:57;102403.09;;;13.59;100.00
52535;BME280;38443;53.164;5.802;2023-08-17T03:25:22;102408.47;;;13.59;100.00
52535;BME280;38443;53.164;5.802;2023-08-17T03:27:47;102405.81;;;13.57;100.00
52535;BME280;38443;53.164;5.802;2023-08-17T03:30:13;102407.53;;;13.62;100.00
52535;BME280;38443;53.164;5.802;2023-08-17T03:32:38;102411.09;;;13.62;100.00
52535;BME280;38443;53.164;5.802;2023-08-17T03:35:04;102399.38;;;13.65;100.00
52535;BME280;38443;53.164;5.802;2023-08-17T03:37:29;102405.69;;;13.64;100.00
52535;BME280;38443;53.164;5.802;2023-08-17T03:39:55;102410.13;;;13.66;100.00
52535;BME280;38443;53.164;5.802;2023-08-17T03:42:20;102411.06;;;13.65;100.00
52535;BME280;38443;53.164;5.802;2023-08-17T03:44:46;102408.38;;;13.65;100.00
52535;BME280;38443;53.164;5.802;2023-08-17T03:47:11;102397.59;;;13.65;100.00
52535;BME280;38443;53.164;5.802;2023-08-17T03:49:36;102394.00;;;13.65;100.00
52535;BME280;38443;53.164;5.802;2023-08-17T03:52:02;102410.16;;;13.65;100.00
52535;BME280;38443;53.164;5.802;2023-08-17T03:54:27;102403.91;;;13.63;100.00
52535;BME280;38443;53.164;5.802;2023-08-17T03:56:53;102396.75;;;13.63;100.00
52535;BME280;38443;53.164;5.802;2023-08-17T03:59:18;102400.31;;;13.65;100.00
52535;BME280;38443;53.164;5.802;2023-08-17T04:01:43;102398.50;;;13.66;100.00
52535;BME280;38443;53.164;5.802;2023-08-17T04:04:09;102403.00;;;13.65;100.00
52535;BME280;38443;53.164;5.802;2023-08-17T04:06:34;102399.38;;;13.66;100.00
52535;BME280;38443;53.164;5.802;2023-08-17T04:09:00;102394.91;;;13.65;100.00
52535;BME280;38443;53.164;5.802;2023-08-17T04:11:26;102401.19;;;13.66;100.00
52535;BME280;38443;53.164;5.802;2023-08-17T04:13:51;102402.06;;;13.65;100.00
52535;BME280;38443;53.164;5.802;2023-08-17T04:16:17;102394.91;;;13.65;100.00
52535;BME280;38443;53.164;5.802;2023-08-17T04:18:42;102404.75;;;13.66;100.00
52535;BME280;38443;53.164;5.802;2023-08-17T04:21:08;102406.50;;;13.69;100.00
52535;BME280;38443;53.164;5.802;2023-08-17T04:23:33;102401.94;;;13.72;100.00
52535;BME280;38443;53.164;5.802;2023-08-17T04:25:58;102406.38;;;13.75;100.00
52535;BME280;38443;53.164;5.802;2023-08-17T04:28:24;102398.28;;;13.76;100.00
52535;BME280;38443;53.164;5.802;2023-08-17T04:30:49;102406.31;;;13.81;100.00
52535;BME280;38443;53.164;5.802;2023-08-17T04:33:14;102407.09;;;13.86;100.00
52535;BME280;38443;53.164;5.802;2023-08-17T04:35:40;102412.47;;;13.88;100.00
52535;BME280;38443;53.164;5.802;2023-08-17T04:38:06;102400.75;;;13.89;100.00
52535;BME280;38443;53.164;5.802;2023-08-17T04:40:31;102410.59;;;13.91;100.00
52535;BME280;38443;53.164;5.802;2023-08-17T04:42:57;102415.03;;;13.94;100.00
52535;BME280;38443;53.164;5.802;2023-08-17T04:45:22;102414.09;;;13.96;100.00
52535;BME280;38443;53.164;5.802;2023-08-17T04:47:48;102414.94;;;13.99;100.00
52535;BME280;38443;53.164;5.802;2023-08-17T04:50:14;102418.47;;;14.02;100.00
52535;BME280;38443;53.164;5.802;2023-08-17T04:52:43;102413.03;;;14.05;100.00
52535;BME280;38443;53.164;5.802;2023-08-17T04:55:08;102420.16;;;14.08;100.00
52535;BME280;38443;53.164;5.802;2023-08-17T04:57:34;102411.13;;;14.10;100.00
52535;BME280;38443;53.164;5.802;2023-08-17T04:59:59;102402.16;;;14.11;100.00
52535;BME280;38443;53.164;5.802;2023-08-17T05:02:25;102403.91;;;14.14;100.00
52535;BME280;38443;53.164;5.802;2023-08-17T05:04:50;102401.19;;;14.15;100.00
52535;BME280;38443;53.164;5.802;2023-08-17T05:07:15;102393.97;;;14.16;100.00
52535;BME280;38443;53.164;5.802;2023-08-17T05:09:41;102394.84;;;14.16;100.00
52535;BME280;38443;53.164;5.802;2023-08-17T05:12:06;102396.66;;;14.18;100.00
52535;BME280;38443;53.164;5.802;2023-08-17T05:14:32;102400.13;;;14.23;100.00
52535;BME280;38443;53.164;5.802;2023-08-17T05:16:57;102398.25;;;14.26;100.00
52535;BME280;38443;53.164;5.802;2023-08-17T05:19:23;102402.69;;;14.29;100.00
52535;BME280;38443;53.164;5.802;2023-08-17T05:21:48;102403.53;;;14.32;100.00
52535;BME280;38443;53.164;5.802;2023-08-17T05:24:15;102396.28;;;14.36;100.00
52535;BME280;38443;53.164;5.802;2023-08-17T05:26:41;102399.81;;;14.40;100.00
52535;BME280;38443;53.164;5.802;2023-08-17T05:29:06;102393.41;;;14.45;100.00
52535;BME280;38443;53.164;5.802;2023-08-17T05:31:31;102392.44;;;14.49;100.00
52535;BME280;38443;53.164;5.802;2023-08-17T05:33:57;102387.81;;;14.56;100.00
52535;BME280;38443;53.164;5.802;2023-08-17T05:36:22;102385.03;;;14.59;100.00
52535;BME280;38443;53.164;5.802;2023-08-17T05:38:47;102390.34;;;14.64;100.00
52535;BME280;38443;53.164;5.802;2023-08-17T05:41:13;102386.69;;;14.66;100.00
52535;BME280;38443;53.164;5.802;2023-08-17T05:43:38;102382.16;;;14.68;100.00
52535;BME280;38443;53.164;5.802;2023-08-17T05:46:03;102375.78;;;14.72;100.00
52535;BME280;38443;53.164;5.802;2023-08-17T05:48:29;102377.50;;;14.75;100.00
52535;BME280;38443;53.164;5.802;2023-08-17T05:50:57;102390.06;;;14.78;100.00
52535;BME280;38443;53.164;5.802;2023-08-17T05:53:22;102380.91;;;14.83;100.00
52535;BME280;38443;53.164;5.802;2023-08-17T05:55:48;102380.75;;;14.91;100.00
52535;BME280;38443;53.164;5.802;2023-08-17T05:58:13;102386.91;;;14.98;100.00
52535;BME280;38443;53.164;5.802;2023-08-17T06:00:39;102376.00;;;15.04;100.00
52535;BME280;38443;53.164;5.802;2023-08-17T06:03:04;102378.56;;;15.08;100.00
52535;BME280;38443;53.164;5.802;2023-08-17T06:05:30;102375.69;;;15.16;100.00
52535;BME280;38443;53.164;5.802;2023-08-17T06:07:56;102388.03;;;15.26;100.00
52535;BME280;38443;53.164;5.802;2023-08-17T06:10:22;102376.22;;;15.32;100.00
52535;BME280;38443;53.164;5.802;2023-08-17T06:12:54;102378.78;;;15.36;100.00
52535;BME280;38443;53.164;5.802;2023-08-17T06:15:20;102378.63;;;15.43;100.00
52535;BME280;38443;53.164;5.802;2023-08-17T06:17:46;102391.09;;;15.48;100.00
52535;BME280;38443;53.164;5.802;2023-08-17T06:20:12;102378.41;;;15.52;100.00
52535;BME280;38443;53.164;5.802;2023-08-17T06:22:37;102371.13;;;15.55;100.00
52535;BME280;38443;53.164;5.802;2023-08-17T06:25:03;102372.81;;;15.60;100.00
52535;BME280;38443;53.164;5.802;2023-08-17T06:27:30;102380.94;;;15.58;100.00
52535;BME280;38443;53.164;5.802;2023-08-17T06:29:55;102380.00;;;15.59;100.00
52535;BME280;38443;53.164;5.802;2023-08-17T06:32:21;102382.66;;;15.62;100.00
52535;BME280;38443;53.164;5.802;2023-08-17T06:34:46;102387.94;;;15.65;100.00
52535;BME280;38443;53.164;5.802;2023-08-17T06:37:11;102392.00;;;15.83;100.00
52535;BME280;38443;53.164;5.802;2023-08-17T06:39:37;102388.66;;;16.70;100.00
52535;BME280;38443;53.164;5.802;2023-08-17T06:42:02;102371.19;;;17.65;100.00
52535;BME280;38443;53.164;5.802;2023-08-17T06:44:28;102356.34;;;18.52;100.00
52535;BME280;38443;53.164;5.802;2023-08-17T06:46:55;102353.41;;;19.26;100.00
52535;BME280;38443;53.164;5.802;2023-08-17T06:49:21;102348.13;;;19.86;100.00
52535;BME280;38443;53.164;5.802;2023-08-17T06:51:47;102345.00;;;20.16;100.00
52535;BME280;38443;53.164;5.802;2023-08-17T06:54:12;102339.72;;;20.13;100.00
52535;BME280;38443;53.164;5.802;2023-08-17T06:56:38;102343.84;;;20.22;100.00
52535;BME280;38443;53.164;5.802;2023-08-17T06:59:03;102338.63;;;20.36;100.00
52535;BME280;38443;53.164;5.802;2023-08-17T07:01:29;102341.94;;;20.63;100.00
52535;BME280;38443;53.164;5.802;2023-08-17T07:03:54;102344.88;;;20.59;100.00
52535;BME280;38443;53.164;5.802;2023-08-17T07:06:21;102340.78;;;20.48;100.00
52535;BME280;38443;53.164;5.802;2023-08-17T07:08:46;102351.13;;;20.61;100.00
52535;BME280;38443;53.164;5.802;2023-08-17T07:11:11;102336.94;;;20.52;100.00
52535;BME280;38443;53.164;5.802;2023-08-17T07:13:36;102339.31;;;20.41;100.00
52535;BME280;38443;53.164;5.802;2023-08-17T07:16:02;102339.75;;;19.92;100.00
52535;BME280;38443;53.164;5.802;2023-08-17T07:18:27;102337.38;;;19.63;100.00
52535;BME280;38443;53.164;5.802;2023-08-17T07:20:52;102332.06;;;19.60;100.00
52535;BME280;38443;53.164;5.802;2023-08-17T07:23:18;102336.19;;;19.90;100.00
52535;BME280;38443;53.164;5.802;2023-08-17T07:25:43;102336.56;;;20.62;100.00
52535;BME280;38443;53.164;5.802;2023-08-17T07:28:09;102329.84;;;21.07;100.00
52535;BME280;38443;53.164;5.802;2023-08-17T07:30:34;102337.78;;;21.48;100.00
52535;BME280;38443;53.164;5.802;2023-08-17T07:33:00;102333.06;;;21.51;100.00
52535;BME280;38443;53.164;5.802;2023-08-17T07:35:25;102339.25;;;21.36;100.00
52535;BME280;38443;53.164;5.802;2023-08-17T07:37:50;102336.09;;;21.45;100.00
52535;BME280;38443;53.164;5.802;2023-08-17T07:40:16;102331.38;;;21.66;100.00
52535;BME280;38443;53.164;5.802;2023-08-17T07:42:41;102327.44;;;21.89;100.00
52535;BME280;38443;53.164;5.802;2023-08-17T07:45:07;102335.34;;;22.11;100.00
52535;BME280;38443;53.164;5.802;2023-08-17T07:47:35;102328.56;;;22.19;100.00
52535;BME280;38443;53.164;5.802;2023-08-17T07:50:05;102328.03;;;22.29;100.00
52535;BME280;38443;53.164;5.802;2023-08-17T07:52:30;102332.88;;;22.23;100.00
52535;BME280;38443;53.164;5.802;2023-08-17T07:54:56;102321.47;;;21.99;100.00
52535;BME280;38443;53.164;5.802;2023-08-17T07:57:21;102319.91;;;21.60;100.00
52535;BME280;38443;53.164;5.802;2023-08-17T07:59:46;102331.63;;;21.25;100.00
52535;BME280;38443;53.164;5.802;2023-08-17T08:02:12;102342.72;;;20.84;100.00
52535;BME280;38443;53.164;5.802;2023-08-17T08:04:37;102353.91;;;20.59;100.00
52535;BME280;38443;53.164;5.802;2023-08-17T08:07:03;102347.44;;;21.00;100.00
52535;BME280;38443;53.164;5.802;2023-08-17T08:09:28;102338.88;;;21.79;100.00
52535;BME280;38443;53.164;5.802;2023-08-17T08:11:53;102339.41;;;22.38;100.00
52535;BME280;38443;53.164;5.802;2023-08-17T08:14:19;102335.22;;;22.80;100.00
52535;BME280;38443;53.164;5.802;2023-08-17T08:16:44;102349.59;;;23.15;100.00
52535;BME280;38443;53.164;5.802;2023-08-17T08:19:09;102339.91;;;23.25;100.00
52535;BME280;38443;53.164;5.802;2023-08-17T08:21:35;102343.47;;;23.42;100.00
52535;BME280;38443;53.164;5.802;2023-08-17T08:24:00;102334.66;;;23.37;100.00
52535;BME280;38443;53.164;5.802;2023-08-17T08:26:25;102336.06;;;23.44;100.00
52535;BME280;38443;53.164;5.802;2023-08-17T08:28:51;102354.72;;;23.21;100.00
52535;BME280;38443;53.164;5.802;2023-08-17T08:31:16;102347.13;;;23.10;100.00
52535;BME280;38443;53.164;5.802;2023-08-17T08:33:43;102350.22;;;23.20;100.00
52535;BME280;38443;53.164;5.802;2023-08-17T08:36:08;102348.25;;;23.22;100.00
52535;BME280;38443;53.164;5.802;2023-08-17T08:38:33;102356.44;;;22.90;100.00
52535;BME280;38443;53.164;5.802;2023-08-17T08:40:59;102352.38;;;22.66;100.00
52535;BME280;38443;53.164;5.802;2023-08-17T08:43:24;102354.28;;;22.48;100.00
52535;BME280;38443;53.164;5.802;2023-08-17T08:45:51;102346.06;;;22.65;100.00
52535;BME280;38443;53.164;5.802;2023-08-17T08:48:18;102340.13;;;22.73;100.00
52535;BME280;38443;53.164;5.802;2023-08-17T08:50:45;102336.25;;;22.45;100.00
52535;BME280;38443;53.164;5.802;2023-08-17T08:53:17;102331.06;;;22.23;100.00
52535;BME280;38443;53.164;5.802;2023-08-17T08:55:55;102333.94;;;22.38;100.00
52535;BME280;38443;53.164;5.802;2023-08-17T08:58:21;102333.19;;;22.67;100.00
52535;BME280;38443;53.164;5.802;2023-08-17T09:00:46;102335.94;;;22.67;100.00
52535;BME280;38443;53.164;5.802;2023-08-17T09:03:14;102333.81;;;22.73;100.00
52535;BME280;38443;53.164;5.802;2023-08-17T09:05:42;102336.75;;;22.36;100.00
52535;BME280;38443;53.164;5.802;2023-08-17T09:08:10;102334.22;;;22.16;100.00
52535;BME280;38443;53.164;5.802;2023-08-17T09:10:37;102343.41;;;21.80;100.00
52535;BME280;38443;53.164;5.802;2023-08-17T09:13:03;102328.91;;;21.25;100.00
52535;BME280;38443;53.164;5.802;2023-08-17T09:15:29;102336.50;;;20.63;100.00
52535;BME280;38443;53.164;5.802;2023-08-17T09:17:54;102337.59;;;20.20;100.00
52535;BME280;38443;53.164;5.802;2023-08-17T09:23:03;102337.75;;;20.55;100.00
52535;BME280;38443;53.164;5.802;2023-08-17T09:25:31;102327.94;;;21.09;100.00
52535;BME280;38443;53.164;5.802;2023-08-17T09:27:57;102323.28;;;21.28;100.00
52535;BME280;38443;53.164;5.802;2023-08-17T09:30:22;102319.50;;;21.50;100.00
52535;BME280;38443;53.164;5.802;2023-08-17T09:32:47;102327.13;;;21.78;100.00
52535;BME280;38443;53.164;5.802;2023-08-17T09:35:14;102320.25;;;22.04;100.00
52535;BME280;38443;53.164;5.802;2023-08-17T09:37:40;102326.72;;;21.86;100.00
52535;BME280;38443;53.164;5.802;2023-08-17T09:40:06;102318.34;;;21.37;100.00
52535;BME280;38443;53.164;5.802;2023-08-17T09:42:35;102327.13;;;21.07;100.00
52535;BME280;38443;53.164;5.802;2023-08-17T09:45:02;102310.88;;;20.86;100.00
52535;BME280;38443;53.164;5.802;2023-08-17T09:47:27;102321.13;;;20.81;100.00
52535;BME280;38443;53.164;5.802;2023-08-17T09:49:55;102329.59;;;20.55;100.00
52535;BME280;38443;53.164;5.802;2023-08-17T09:52:23;102319.28;;;20.23;100.00
52535;BME280;38443;53.164;5.802;2023-08-17T09:54:49;102325.13;;;19.95;100.00
52535;BME280;38443;53.164;5.802;2023-08-17T09:57:15;102310.38;;;19.80;100.00
52535;BME280;38443;53.164;5.802;2023-08-17T09:59:41;102319.53;;;19.98;100.00
52535;BME280;38443;53.164;5.802;2023-08-17T10:02:22;102313.78;;;20.25;100.00
52535;BME280;38443;53.164;5.802;2023-08-17T10:04:53;102304.38;;;20.32;100.00
52535;BME280;38443;53.164;5.802;2023-08-17T10:07:19;102305.88;;;20.39;100.00
52535;BME280;38443;53.164;5.802;2023-08-17T10:09:49;102300.78;;;20.50;100.00
52535;BME280;38443;53.164;5.802;2023-08-17T10:12:17;102297.75;;;20.57;100.00
52535;BME280;38443;53.164;5.802;2023-08-17T10:15:03;102299.78;;;20.53;100.00
52535;BME280;38443;53.164;5.802;2023-08-17T10:17:39;102302.88;;;20.64;100.00
52535;BME280;38443;53.164;5.802;2023-08-17T10:20:07;102299.78;;;20.91;100.00
52535;BME280;38443;53.164;5.802;2023-08-17T10:22:39;102299.47;;;20.97;100.00
52535;BME280;38443;53.164;5.802;2023-08-17T10:25:08;102288.19;;;21.05;100.00
52535;BME280;38443;53.164;5.802;2023-08-17T10:27:37;102292.41;;;20.93;100.00
52535;BME280;38443;53.164;5.802;2023-08-17T10:30:02;102286.84;;;20.77;100.00
52535;BME280;38443;53.164;5.802;2023-08-17T10:32:28;102278.00;;;20.72;100.00
52535;BME280;38443;53.164;5.802;2023-08-17T10:34:54;102278.88;;;20.72;100.00
52535;BME280;38443;53.164;5.802;2023-08-17T10:37:20;102283.13;;;20.61;100.00
52535;BME280;38443;53.164;5.802;2023-08-17T10:39:46;102271.81;;;20.30;100.00
52535;BME280;38443;53.164;5.802;2023-08-17T10:42:13;102280.84;;;20.12;100.00
52535;BME280;38443;53.164;5.802;2023-08-17T10:47:32;102278.88;;;20.16;100.00
52535;BME280;38443;53.164;5.802;2023-08-17T10:49:58;102273.72;;;20.28;100.00
52535;BME280;38443;53.164;5.802;2023-08-17T10:52:26;102275.06;;;20.39;100.00
52535;BME280;38443;53.164;5.802;2023-08-17T10:54:53;102280.06;;;20.48;100.00
52535;BME280;38443;53.164;5.802;2023-08-17T10:57:25;102273.97;;;20.62;100.00
52535;BME280;38443;53.164;5.802;2023-08-17T11:02:43;102272.34;;;20.77;100.00
52535;BME280;38443;53.164;5.802;2023-08-17T11:05:09;102265.91;;;20.97;100.00
52535;BME280;38443;53.164;5.802;2023-08-17T11:07:42;102271.38;;;21.14;100.00
52535;BME280;38443;53.164;5.802;2023-08-17T11:12:45;102261.28;;;21.16;100.00
52535;BME280;38443;53.164;5.802;2023-08-17T11:15:10;102260.72;;;21.09;100.00
52535;BME280;38443;53.164;5.802;2023-08-17T11:17:36;102280.91;;;21.05;100.00
52535;BME280;38443;53.164;5.802;2023-08-17T11:20:01;102267.97;;;20.91;100.00
52535;BME280;38443;53.164;5.802;2023-08-17T11:22:27;102272.75;;;20.86;100.00
52535;BME280;38443;53.164;5.802;2023-08-17T11:24:53;102274.22;;;20.94;100.00
52535;BME280;38443;53.164;5.802;2023-08-17T11:27:19;102268.06;;;20.90;100.00
52535;BME280;38443;53.164;5.802;2023-08-17T11:29:45;102264.88;;;20.99;100.00
52535;BME280;38443;53.164;5.802;2023-08-17T11:32:10;102259.63;;;21.31;100.00
52535;BME280;38443;53.164;5.802;2023-08-17T11:34:37;102254.84;;;21.54;100.00
52535;BME280;38443;53.164;5.802;2023-08-17T11:37:02;102261.25;;;21.52;100.00
52535;BME280;38443;53.164;5.802;2023-08-17T11:39:33;102249.28;;;21.38;100.00
52535;BME280;38443;53.164;5.802;2023-08-17T11:41:58;102263.28;;;21.12;100.00
52535;BME280;38443;53.164;5.802;2023-08-17T11:44:24;102256.22;;;20.91;100.00
52535;BME280;38443;53.164;5.802;2023-08-17T11:46:50;102268.38;;;20.84;100.00
52535;BME280;38443;53.164;5.802;2023-08-17T11:49:17;102263.91;;;20.83;100.00
52535;BME280;38443;53.164;5.802;2023-08-17T11:51:42;102265.06;;;20.77;100.00
52535;BME280;38443;53.164;5.802;2023-08-17T11:54:07;102255.38;;;20.71;100.00
52535;BME280;38443;53.164;5.802;2023-08-17T11:56:33;102256.84;;;20.60;100.00
52535;BME280;38443;53.164;5.802;2023-08-17T11:59:08;102262.88;;;20.66;100.00
52535;BME280;38443;53.164;5.802;2023-08-17T12:01:33;102242.50;;;20.75;100.00
52535;BME280;38443;53.164;5.802;2023-08-17T12:04:00;102242.50;;;20.92;100.00
52535;BME280;38443;53.164;5.802;2023-08-17T12:06:25;102245.59;;;21.04;100.00
52535;BME280;38443;53.164;5.802;2023-08-17T12:08:51;102243.09;;;20.99;100.00
52535;BME280;38443;53.164;5.802;2023-08-17T12:11:17;102244.88;;;21.18;100.00
52535;BME280;38443;53.164;5.802;2023-08-17T12:13:51;102240.31;;;21.36;100.00
52535;BME280;38443;53.164;5.802;2023-08-17T12:16:18;102242.72;;;21.42;100.00
52535;BME280;38443;53.164;5.802;2023-08-17T12:18:45;102242.88;;;21.21;100.00
52535;BME280;38443;53.164;5.802;2023-08-17T12:21:11;102249.66;;;20.95;100.00
52535;BME280;38443;53.164;5.802;2023-08-17T12:23:36;102246.28;;;20.90;100.00
52535;BME280;38443;53.164;5.802;2023-08-17T12:26:01;102252.84;;;20.86;100.00
52535;BME280;38443;53.164;5.802;2023-08-17T12:28:27;102258.53;;;20.81;100.00
52535;BME280;38443;53.164;5.802;2023-08-17T12:31:02;102249.56;;;20.79;100.00
52535;BME280;38443;53.164;5.802;2023-08-17T12:33:28;102258.03;;;20.73;100.00
52535;BME280;38443;53.164;5.802;2023-08-17T12:35:54;102253.94;;;20.82;100.00
52535;BME280;38443;53.164;5.802;2023-08-17T12:38:20;102253.47;;;20.74;100.00
52535;BME280;38443;53.164;5.802;2023-08-17T12:40:45;102253.34;;;20.56;100.00
52535;BME280;38443;53.164;5.802;2023-08-17T12:43:10;102259.84;;;20.53;100.00
52535;BME280;38443;53.164;5.802;2023-08-17T12:45:36;102259.91;;;20.52;100.00